Time;durP1;ratioP1;P1;durP2;ratioP2;P2;SDS_P1;SDS_P2;PMS_P1;PMS_P2;Temp;Humidity;BMP_temperature;BMP_pressure;BME280_temperature;BME280_humidity;BME280_pressure;Samples;Min_cycle;Max_cycle;Signal;HPM_P1;HPM_P2
2023/11/10 00:08:09;;;;;;;6.7;2.8;;;;;;;9.29;63.67;;;;;
2023/11/10 00:18:05;;;;;;;5.1;3.1;;;;;;;9.1;64.71;;;;;
2023/11/10 00:28:05;;;;;;;5.1;3.1;;;;;;;9.33;66.51;;;;;
2023/11/10 00:38:05;;;;;;;5.1;3.1;;;;;;;9.25;66;;;;;
2023/11/10 00:49:05;;;;;;;7;3.6;;;;;;;9.25;66.59;;;;;
2023/11/10 01:00:06;;;;;;;7;3.6;;;;;;;9.29;66.57;;;;;
2023/11/10 01:10:06;;;;;;;7;3.6;;;;;;;9.59;65.45;;;;;
2023/11/10 01:21:07;;;;;;;5.8;2.7;;;;;;;10.01;64.97;;;;;
2023/11/10 01:32:05;;;;;;;5.8;2.7;;;;;;;10.68;61.66;;;;;
2023/11/10 01:42:08;;;;;;;5.8;2.7;;;;;;;11.07;60.54;;;;;
2023/11/10 01:53:06;;;;;;;3.7;1.6;;;;;;;11.11;61.51;;;;;
2023/11/10 02:03:06;;;;;;;3.7;1.6;;;;;;;10.95;62.82;;;;;
2023/11/10 02:14:06;;;;;;;3.7;1.6;;;;;;;10.93;61.78;;;;;
2023/11/10 02:25:05;;;;;;;3.7;1.6;;;;;;;10.93;61.43;;;;;
2023/11/10 02:36:06;;;;;;;3.7;1.6;;;;;;;10.73;61.87;;;;;
2023/11/10 02:46:05;;;;;;;3.7;2.1;;;;;;;10.46;62.62;;;;;
2023/11/10 02:56:06;;;;;;;3.7;2.1;;;;;;;10.28;63.38;;;;;
2023/11/10 03:07:05;;;;;;;3.7;2.1;;;;;;;10.11;64.36;;;;;
2023/11/10 03:17:05;;;;;;;4.5;2.4;;;;;;;10.08;64.4;;;;;
2023/11/10 03:28:06;;;;;;;4.5;2.4;;;;;;;9.96;65.12;;;;;
2023/11/10 03:38:05;;;;;;;4.5;2.4;;;;;;;9.77;66.81;;;;;
2023/11/10 03:49:07;;;;;;;4.2;1.7;;;;;;;9.83;65.51;;;;;
2023/11/10 03:59:07;;;;;;;4.2;1.7;;;;;;;9.76;65.65;;;;;
2023/11/10 04:10:06;;;;;;;4.2;1.7;;;;;;;9.5;67.24;;;;;
2023/11/10 04:21:05;;;;;;;4.1;1.7;;;;;;;9.22;68.3;;;;;
2023/11/10 04:32:05;;;;;;;4.1;1.7;;;;;;;8.98;68.77;;;;;
2023/11/10 04:42:06;;;;;;;4.1;1.7;;;;;;;8.72;69.47;;;;;
2023/11/10 04:52:06;;;;;;;5.2;2;;;;;;;8.41;71.88;;;;;
2023/11/10 05:02:08;;;;;;;5.2;2;;;;;;;8.31;72.28;;;;;
2023/11/10 05:13:05;;;;;;;5.2;2;;;;;;;8.07;72.04;;;;;
2023/11/10 05:23:05;;;;;;;3.4;1.8;;;;;;;7.87;73.48;;;;;
2023/11/10 05:33:06;;;;;;;3.4;1.8;;;;;;;7.65;74.37;;;;;
2023/11/10 05:43:06;;;;;;;3.4;1.8;;;;;;;7.53;74.63;;;;;
2023/11/10 05:54:06;;;;;;;4.8;1.4;;;;;;;7.26;74.41;;;;;
2023/11/10 06:04:05;;;;;;;4.8;1.4;;;;;;;7.02;77.86;;;;;
2023/11/10 06:14:06;;;;;;;4.4;2.2;;;;;;;7.04;78.27;;;;;
2023/11/10 06:25:06;;;;;;;4.4;2.2;;;;;;;7.07;78.85;;;;;
2023/11/10 06:36:06;;;;;;;4.4;2.2;;;;;;;7.37;78.21;;;;;
2023/11/10 06:46:06;;;;;;;4.1;1.5;;;;;;;7.71;77.69;;;;;
2023/11/10 06:56:06;;;;;;;4.1;1.5;;;;;;;8.06;76.75;;;;;
2023/11/10 07:07:06;;;;;;;4.1;1.5;;;;;;;8.45;76.79;;;;;
2023/11/10 07:17:06;;;;;;;3.4;1.4;;;;;;;8.72;76.8;;;;;
2023/11/10 07:27:06;;;;;;;3.4;1.4;;;;;;;8.95;75.36;;;;;
2023/11/10 07:38:06;;;;;;;3.4;1.4;;;;;;;9.12;75.1;;;;;
2023/11/10 07:48:06;;;;;;;10.2;4.8;;;;;;;9.3;74.76;;;;;
2023/11/10 07:59:08;;;;;;;10.2;4.8;;;;;;;9.58;74.73;;;;;
2023/11/10 08:10:06;;;;;;;10.2;4.8;;;;;;;9.93;74.1;;;;;
2023/11/10 08:20:06;;;;;;;8.3;4.2;;;;;;;10.06;72.89;;;;;
2023/11/10 08:31:06;;;;;;;8.3;4.2;;;;;;;10.04;73.74;;;;;
2023/11/10 08:42:06;;;;;;;8.3;4.2;;;;;;;10.3;73.02;;;;;
2023/11/10 08:52:06;;;;;;;8.8;5.4;;;;;;;10.51;73.62;;;;;
2023/11/10 09:02:06;;;;;;;8.8;5.4;;;;;;;11.03;72.67;;;;;
2023/11/10 09:13:07;;;;;;;11.2;5.4;;;;;;;11.53;70.63;;;;;
2023/11/10 09:24:06;;;;;;;11.2;5.4;;;;;;;12.08;68.61;;;;;
2023/11/10 09:34:06;;;;;;;11.2;5.4;;;;;;;12.57;66.34;;;;;
2023/11/10 09:45:06;;;;;;;10.5;6.1;;;;;;;13.18;63.57;;;;;
2023/11/10 09:55:06;;;;;;;10.5;6.1;;;;;;;13.63;64.38;;;;;
2023/11/10 10:06:06;;;;;;;10.5;6.1;;;;;;;14.09;62.65;;;;;
2023/11/10 10:17:06;;;;;;;13.9;6.5;;;;;;;14.45;59.03;;;;;
2023/11/10 10:28:06;;;;;;;13.9;6.5;;;;;;;14.44;57.46;;;;;
2023/11/10 10:38:06;;;;;;;13.9;6.5;;;;;;;14.43;57.35;;;;;
2023/11/10 10:49:06;;;;;;;12.2;4.9;;;;;;;14.7;58.15;;;;;
2023/11/10 11:00:06;;;;;;;12.2;4.9;;;;;;;14.42;56.33;;;;;
2023/11/10 11:10:06;;;;;;;12.2;4.9;;;;;;;14.03;58.04;;;;;
2023/11/10 11:21:06;;;;;;;6.4;3.7;;;;;;;13.36;59.99;;;;;
2023/11/10 11:32:08;;;;;;;6.4;3.7;;;;;;;12.57;63.42;;;;;
2023/11/10 11:42:06;;;;;;;6.4;3.7;;;;;;;12.28;63.87;;;;;
2023/11/10 11:53:06;;;;;;;4.9;2.5;;;;;;;12.05;65.5;;;;;
2023/11/10 12:03:07;;;;;;;4.9;2.5;;;;;;;12.09;65.1;;;;;
2023/11/10 12:14:06;;;;;;;6.7;3;;;;;;;12.01;65.68;;;;;
2023/11/10 12:25:06;;;;;;;6.7;3;;;;;;;11.87;67.81;;;;;
2023/11/10 12:35:06;;;;;;;6.7;3;;;;;;;11.78;70.79;;;;;
2023/11/10 12:46:06;;;;;;;6.2;3.4;;;;;;;11.72;69.18;;;;;
2023/11/10 12:56:06;;;;;;;6.2;3.4;;;;;;;11.66;69.81;;;;;
2023/11/10 13:07:06;;;;;;;6.2;3.4;;;;;;;11.56;70.7;;;;;
2023/11/10 13:17:06;;;;;;;9.8;5;;;;;;;11.45;72.26;;;;;
2023/11/10 13:28:07;;;;;;;9.8;5;;;;;;;11.33;74.47;;;;;
2023/11/10 13:38:06;;;;;;;9.8;5;;;;;;;11.23;75.06;;;;;
2023/11/10 13:49:06;;;;;;;7.9;5;;;;;;;11.18;74.99;;;;;
2023/11/10 13:59:06;;;;;;;7.9;5;;;;;;;11;75.59;;;;;
2023/11/10 14:09:09;;;;;;;7.9;5;;;;;;;10.81;76.72;;;;;
2023/11/10 14:20:08;;;;;;;13.6;6.8;;;;;;;10.77;77.2;;;;;
2023/11/10 14:31:06;;;;;;;13.6;6.8;;;;;;;10.71;77.9;;;;;
2023/11/10 14:42:13;;;;;;;13.6;6.8;;;;;;;10.63;78.28;;;;;
2023/11/10 14:52:08;;;;;;;10.1;4.4;;;;;;;10.46;79.78;;;;;
2023/11/10 15:03:06;;;;;;;10.1;4.4;;;;;;;10.42;80.93;;;;;
2023/11/10 15:14:07;;;;;;;9.2;5.1;;;;;;;10.32;80.95;;;;;
2023/11/10 15:24:07;;;;;;;9.2;5.1;;;;;;;10.15;81.82;;;;;
2023/11/10 15:35:06;;;;;;;9.2;5.1;;;;;;;10.12;82.16;;;;;
2023/11/10 15:46:06;;;;;;;8.4;4.7;;;;;;;10.02;83.15;;;;;
2023/11/10 15:56:06;;;;;;;8.4;4.7;;;;;;;10.04;83.16;;;;;
2023/11/10 16:06:07;;;;;;;8.4;4.7;;;;;;;9.92;83.86;;;;;
2023/11/10 16:17:06;;;;;;;10.6;6.1;;;;;;;9.84;84.1;;;;;
2023/11/10 16:28:06;;;;;;;10.6;6.1;;;;;;;9.76;84.6;;;;;
2023/11/10 16:38:09;;;;;;;10.6;6.1;;;;;;;9.42;86.94;;;;;
2023/11/10 16:49:06;;;;;;;18.3;10.3;;;;;;;9.66;85.69;;;;;
2023/11/10 16:59:06;;;;;;;18.3;10.3;;;;;;;9.67;84.76;;;;;
2023/11/10 17:10:06;;;;;;;18.3;10.3;;;;;;;9.79;83.95;;;;;
2023/11/10 17:21:06;;;;;;;19.6;12.6;;;;;;;9.73;84.03;;;;;
2023/11/10 17:32:06;;;;;;;19.6;12.6;;;;;;;9.74;83.71;;;;;
2023/11/10 17:43:07;;;;;;;17.5;11;;;;;;;9.69;84.34;;;;;
2023/11/10 17:53:07;;;;;;;17.5;11;;;;;;;9.6;84.86;;;;;
2023/11/10 18:03:08;;;;;;;17.5;11;;;;;;;9.61;84.69;;;;;
2023/11/10 18:14:06;;;;;;;22.3;14.1;;;;;;;9.59;84.67;;;;;
2023/11/10 18:25:06;;;;;;;22.3;14.1;;;;;;;9.49;85.62;;;;;
2023/11/10 18:36:06;;;;;;;22.3;14.1;;;;;;;9.5;86.23;;;;;
2023/11/10 18:46:06;;;;;;;23.7;15.9;;;;;;;9.58;85.76;;;;;
2023/11/10 18:57:06;;;;;;;23.7;15.9;;;;;;;9.57;85.31;;;;;
2023/11/10 19:07:07;;;;;;;23.7;15.9;;;;;;;9.58;85.18;;;;;
2023/11/10 19:18:07;;;;;;;22;14.1;;;;;;;9.37;85.66;;;;;
2023/11/10 19:28:07;;;;;;;22;14.1;;;;;;;9.47;85.31;;;;;
2023/11/10 19:39:07;;;;;;;22;14.1;;;;;;;9.44;85.44;;;;;
2023/11/10 19:49:06;;;;;;;25.2;15.5;;;;;;;9.51;85.33;;;;;
2023/11/10 19:59:08;;;;;;;25.2;15.5;;;;;;;9.44;85.8;;;;;
2023/11/10 20:10:07;;;;;;;25.2;15.5;;;;;;;9.36;85.86;;;;;
2023/11/10 20:20:06;;;;;;;22.8;15.4;;;;;;;9.33;85.55;;;;;
2023/11/10 20:31:06;;;;;;;22.8;15.4;;;;;;;9.25;85.68;;;;;
2023/11/10 20:41:06;;;;;;;22.8;15.4;;;;;;;9.02;87.23;;;;;
2023/11/10 20:51:06;;;;;;;19.7;11.5;;;;;;;9.11;87.07;;;;;
2023/11/10 21:02:06;;;;;;;19.7;11.5;;;;;;;9.03;87.62;;;;;
2023/11/10 21:12:06;;;;;;;19.7;11.5;;;;;;;9.19;86.52;;;;;
2023/11/10 21:23:10;;;;;;;24.5;15.4;;;;;;;9.22;85.88;;;;;
2023/11/10 21:34:07;;;;;;;24.5;15.4;;;;;;;9.18;85.43;;;;;
2023/11/10 21:45:06;;;;;;;19.6;12.3;;;;;;;8.94;85.77;;;;;
2023/11/10 21:55:06;;;;;;;19.6;12.3;;;;;;;8.95;85.7;;;;;
2023/11/10 22:05:06;;;;;;;19.6;12.3;;;;;;;8.67;86.85;;;;;
2023/11/10 22:16:06;;;;;;;16.5;9.9;;;;;;;8.69;87.04;;;;;
2023/11/10 22:27:06;;;;;;;16.5;9.9;;;;;;;8.6;87.2;;;;;
2023/11/10 22:38:07;;;;;;;16.5;9.9;;;;;;;8.65;86.83;;;;;
2023/11/10 22:48:06;;;;;;;17.3;9.9;;;;;;;8.55;87;;;;;
2023/11/10 22:59:06;;;;;;;17.3;9.9;;;;;;;8.58;86.79;;;;;
2023/11/10 23:09:07;;;;;;;17.3;9.9;;;;;;;8.52;87.17;;;;;
2023/11/10 23:20:09;;;;;;;16.6;11;;;;;;;8.52;87.28;;;;;
2023/11/10 23:31:07;;;;;;;16.6;11;;;;;;;8.52;86.75;;;;;
2023/11/10 23:42:07;;;;;;;16.6;11;;;;;;;8.64;86.39;;;;;
2023/11/10 23:52:06;;;;;;;14.6;10.7;;;;;;;8.62;86.54;;;;;
